Terminal Aerodrome Forecast
Issued by NWS Wilmington, OH

Current Version | Previous Version | Graphics & Text | Print | Product List | Glossary On
Versions: 1 2 3 4 5 6 7 8 9 10 11 12 13 14 15 16 17 18 19 20 21 22 23
600
FTUS41 KILN 272103 AAA
TAFCVG
TAF AMD
KCVG 272103Z 2721/2824 16008KT P6SM SCT040 BKN080
      TEMPO 2722/2801 3SM -TSRA OVC040CB
     FM280100 17005KT 6SM -SHRA VCTS OVC040CB
     FM280500 20004KT 5SM -SHRA BR OVC015
     FM280800 VRB03KT 4SM BR VCSH OVC010
     FM281100 31006KT 5SM BR OVC008
     FM281600 35007KT P6SM OVC015
     FM282000 35009KT P6SM OVC022=

USA.gov is the U.S. government's official web portal to all federal, state and local government web resources and services.